Mansfield, IL (61854)

6:36 AM CDT on March 29, 2015 (GMT -0500)
Oak Creek | | Change Station
CLOSE
Current Station
Personal Weather Station
Location: Mahomet, IL
Elevation: 728 ft
Nearby Weather Stations

Elev 728 ft 40.18 °N, 88.39 °W | Updated 1 minute ago

Clear
Clear
26.2 °F
Feels Like 26 °F
N
1.6
Wind Variable Wind from SE
Gusts 3.1 mph

Today
High -- | Low -- °F
--% Chance of Precip.
Yesterday
High -- | Low -- °F
Precip. -- in
6:43 AM 7:15 PM
Waxing Gibbous, 71% visible
Pressure 30.24 in
Visibility 10.0 miles
Clouds Clear
Windchill 26 °F
Dew Point 16 °F
Humidity 65%
Rainfall 0.00 in
Snow Depth Not available.
UV 0 out of 12
Pollen 5.70 out of 12
Air Quality Not available.
Flu Activity Not available.
METAR KCMI 291053Z 17010KT 10SM CLR M02/M07 A3021 RMK AO2 SLP238 T10221067

More Conditions Fewer Conditions

Pressure 30.24 in
Visibility 10.0 miles
Clouds Clear
Windchill 26 °F
Dew Point 16 °F
Humidity 65%
Rainfall 0.00 in
Snow Depth Not available.
UV 0 out of 12
Pollen 5.70 out of 12
Air Quality Not available.
Flu Activity Not available.
METAR KCMI 291053Z 17010KT 10SM CLR M02/M07 A3021 RMK AO2 SLP238 T10221067

More Conditions Fewer Conditions

10-Day Weather Forecast

Almanac

Astronomy

Mar. 29, 2015 Rise Set
Actual Time
Civil Twilight
Nautical Twilight
Astronomical Twilight
Moon
Length of Visible Light
Length of Day
Tomorrow will be .
, % of the Moon is Illuminated

Today's Extremes

State Highs State Lows

Community

WunderPhotos

Upload Photos

1,809,214 photos uploaded!

WunderBlogs® & News

Nearby

Air Quality

  Air Quality AQ Index Pollutant
Not available.

Snow Depth

Station Depth Elevation

Earthquake Activity

City Distance Mag. Time & Date
Minimum magnitude displayed is 2.5.

Coastal Water Temperatures

Place Temperature

Stations

Nearby Weather Stations

Station Location Temp. Windchill Dew Point Humidity Wind Precip. Elev Updated Type